sensor_id;sensor_type;location;lat;lon;timestamp;pressure;altitude;pressure_sealevel;temperature;humidity
20455;BME280;10386;54.314;10.022;2023-03-04T00:01:20;101786.94;;;6.28;100.00
20455;BME280;10386;54.314;10.022;2023-03-04T00:03:46;101784.31;;;6.27;100.00
20455;BME280;10386;54.314;10.022;2023-03-04T00:06:13;101791.53;;;6.26;100.00
20455;BME280;10386;54.314;10.022;2023-03-04T00:08:40;101790.78;;;6.23;100.00
20455;BME280;10386;54.314;10.022;2023-03-04T00:11:06;101788.19;;;6.20;100.00
20455;BME280;10386;54.314;10.022;2023-03-04T00:13:33;101804.38;;;6.20;100.00
20455;BME280;10386;54.314;10.022;2023-03-04T00:16:00;101810.47;;;6.25;100.00
20455;BME280;10386;54.314;10.022;2023-03-04T00:18:27;101801.59;;;6.21;100.00
20455;BME280;10386;54.314;10.022;2023-03-04T00:20:53;101795.22;;;6.24;100.00
20455;BME280;10386;54.314;10.022;2023-03-04T00:23:21;101795.13;;;6.27;100.00
20455;BME280;10386;54.314;10.022;2023-03-04T00:25:48;101791.53;;;6.26;100.00
20455;BME280;10386;54.314;10.022;2023-03-04T00:28:15;101804.97;;;6.28;100.00
20455;BME280;10386;54.314;10.022;2023-03-04T00:30:42;101798.66;;;6.27;100.00
20455;BME280;10386;54.314;10.022;2023-03-04T00:33:09;101804.03;;;6.29;100.00
20455;BME280;10386;54.314;10.022;2023-03-04T00:35:35;101798.63;;;6.29;100.00
20455;BME280;10386;54.314;10.022;2023-03-04T00:38:02;101804.88;;;6.29;100.00
20455;BME280;10386;54.314;10.022;2023-03-04T00:40:29;101796.09;;;6.24;100.00
20455;BME280;10386;54.314;10.022;2023-03-04T00:42:55;101793.41;;;6.24;100.00
20455;BME280;10386;54.314;10.022;2023-03-04T00:45:22;101799.81;;;6.22;100.00
20455;BME280;10386;54.314;10.022;2023-03-04T00:47:49;101805.00;;;6.26;100.00
20455;BME280;10386;54.314;10.022;2023-03-04T00:50:15;101810.41;;;6.26;100.00
20455;BME280;10386;54.314;10.022;2023-03-04T00:52:42;101802.06;;;6.32;100.00
20455;BME280;10386;54.314;10.022;2023-03-04T00:55:09;101797.69;;;6.30;100.00
20455;BME280;10386;54.314;10.022;2023-03-04T00:57:36;101800.28;;;6.33;100.00
20455;BME280;10386;54.314;10.022;2023-03-04T01:00:03;101801.94;;;6.35;100.00
20455;BME280;10386;54.314;10.022;2023-03-04T01:02:30;101806.59;;;6.32;100.00
20455;BME280;10386;54.314;10.022;2023-03-04T01:04:57;101810.13;;;6.34;100.00
20455;BME280;10386;54.314;10.022;2023-03-04T01:07:23;101820.00;;;6.33;100.00
20455;BME280;10386;54.314;10.022;2023-03-04T01:09:50;101814.50;;;6.36;100.00
20455;BME280;10386;54.314;10.022;2023-03-04T01:12:17;101817.28;;;6.35;100.00
20455;BME280;10386;54.314;10.022;2023-03-04T01:14:44;101809.41;;;6.29;100.00
20455;BME280;10386;54.314;10.022;2023-03-04T01:17:11;101803.94;;;6.30;100.00
20455;BME280;10386;54.314;10.022;2023-03-04T01:19:37;101804.84;;;6.31;100.00
20455;BME280;10386;54.314;10.022;2023-03-04T01:22:04;101800.19;;;6.34;100.00
20455;BME280;10386;54.314;10.022;2023-03-04T01:24:31;101810.13;;;6.34;100.00
20455;BME280;10386;54.314;10.022;2023-03-04T01:26:58;101811.09;;;6.31;100.00
20455;BME280;10386;54.314;10.022;2023-03-04T01:29:24;101796.63;;;6.34;100.00
20455;BME280;10386;54.314;10.022;2023-03-04T01:31:52;101798.50;;;6.32;100.00
20455;BME280;10386;54.314;10.022;2023-03-04T01:34:19;101783.03;;;6.37;100.00
20455;BME280;10386;54.314;10.022;2023-03-04T01:36:46;101778.63;;;6.34;100.00
20455;BME280;10386;54.314;10.022;2023-03-04T01:39:12;101772.25;;;6.37;100.00
20455;BME280;10386;54.314;10.022;2023-03-04T01:41:39;101762.44;;;6.34;100.00
20455;BME280;10386;54.314;10.022;2023-03-04T01:44:08;101773.00;;;6.40;100.00
20455;BME280;10386;54.314;10.022;2023-03-04T01:46:36;101757.94;;;6.35;100.00
20455;BME280;10386;54.314;10.022;2023-03-04T01:49:05;101767.22;;;6.28;100.00
20455;BME280;10386;54.314;10.022;2023-03-04T01:51:32;101762.44;;;6.34;100.00
20455;BME280;10386;54.314;10.022;2023-03-04T01:53:59;101766.03;;;6.35;100.00
20455;BME280;10386;54.314;10.022;2023-03-04T01:56:34;101748.91;;;6.36;100.00
20455;BME280;10386;54.314;10.022;2023-03-04T01:59:22;101748.66;;;6.42;100.00
20455;BME280;10386;54.314;10.022;2023-03-04T02:01:52;101751.31;;;6.43;100.00
20455;BME280;10386;54.314;10.022;2023-03-04T02:04:21;101746.88;;;6.42;100.00
20455;BME280;10386;54.314;10.022;2023-03-04T02:06:50;101746.91;;;6.41;100.00
20455;BME280;10386;54.314;10.022;2023-03-04T02:09:18;101743.16;;;6.45;100.00
20455;BME280;10386;54.314;10.022;2023-03-04T02:11:45;101747.69;;;6.44;100.00
20455;BME280;10386;54.314;10.022;2023-03-04T02:14:14;101739.13;;;6.55;100.00
20455;BME280;10386;54.314;10.022;2023-03-04T02:16:41;101735.88;;;6.47;100.00
20455;BME280;10386;54.314;10.022;2023-03-04T02:22:13;101729.06;;;6.38;100.00
20455;BME280;10386;54.314;10.022;2023-03-04T02:24:45;101736.25;;;6.38;100.00
20455;BME280;10386;54.314;10.022;2023-03-04T02:27:13;101726.97;;;6.45;100.00
20455;BME280;10386;54.314;10.022;2023-03-04T02:29:39;101727.78;;;6.47;100.00
20455;BME280;10386;54.314;10.022;2023-03-04T02:32:09;101735.75;;;6.50;100.00
20455;BME280;10386;54.314;10.022;2023-03-04T02:34:37;101746.75;;;6.45;100.00
20455;BME280;10386;54.314;10.022;2023-03-04T02:37:05;101748.66;;;6.42;100.00
20455;BME280;10386;54.314;10.022;2023-03-04T02:39:38;101742.41;;;6.41;100.00
20455;BME280;10386;54.314;10.022;2023-03-04T02:42:06;101745.03;;;6.43;100.00
20455;BME280;10386;54.314;10.022;2023-03-04T02:44:35;101738.91;;;6.39;100.00
20455;BME280;10386;54.314;10.022;2023-03-04T02:47:05;101738.91;;;6.39;100.00
20455;BME280;10386;54.314;10.022;2023-03-04T02:49:33;101740.75;;;6.37;100.00
20455;BME280;10386;54.314;10.022;2023-03-04T02:52:06;101748.94;;;6.34;100.00
20455;BME280;10386;54.314;10.022;2023-03-04T02:54:33;101745.28;;;6.37;100.00
20455;BME280;10386;54.314;10.022;2023-03-04T02:57:04;101747.03;;;6.38;100.00
20455;BME280;10386;54.314;10.022;2023-03-04T02:59:30;101765.09;;;6.36;100.00
20455;BME280;10386;54.314;10.022;2023-03-04T03:01:57;101776.94;;;6.32;100.00
20455;BME280;10386;54.314;10.022;2023-03-04T03:04:24;101768.78;;;6.33;100.00
20455;BME280;10386;54.314;10.022;2023-03-04T03:06:52;101778.84;;;6.28;100.00
20455;BME280;10386;54.314;10.022;2023-03-04T03:09:19;101761.69;;;6.31;100.00
20455;BME280;10386;54.314;10.022;2023-03-04T03:11:46;101774.41;;;6.27;100.00
20455;BME280;10386;54.314;10.022;2023-03-04T03:14:13;101771.47;;;6.33;100.00
20455;BME280;10386;54.314;10.022;2023-03-04T03:16:40;101778.81;;;6.30;100.00
20455;BME280;10386;54.314;10.022;2023-03-04T03:19:06;101768.72;;;6.35;100.00
20455;BME280;10386;54.314;10.022;2023-03-04T03:21:33;101776.75;;;6.36;100.00
20455;BME280;10386;54.314;10.022;2023-03-04T03:24:00;101778.56;;;6.36;100.00
20455;BME280;10386;54.314;10.022;2023-03-04T03:26:26;101781.31;;;6.34;100.00
20455;BME280;10386;54.314;10.022;2023-03-04T03:28:53;101793.00;;;6.35;100.00
20455;BME280;10386;54.314;10.022;2023-03-04T03:31:20;101788.81;;;6.26;100.00
20455;BME280;10386;54.314;10.022;2023-03-04T03:33:46;101793.03;;;6.33;100.00
20455;BME280;10386;54.314;10.022;2023-03-04T03:36:13;101796.69;;;6.32;100.00
20455;BME280;10386;54.314;10.022;2023-03-04T03:38:40;101804.03;;;6.29;100.00
20455;BME280;10386;54.314;10.022;2023-03-04T03:41:07;101791.59;;;6.25;100.00
20455;BME280;10386;54.314;10.022;2023-03-04T03:43:33;101801.69;;;6.20;100.00
20455;BME280;10386;54.314;10.022;2023-03-04T03:46:00;101794.56;;;6.17;100.00
20455;BME280;10386;54.314;10.022;2023-03-04T03:48:27;101783.84;;;6.16;100.00
20455;BME280;10386;54.314;10.022;2023-03-04T03:50:53;101800.97;;;6.15;100.00
20455;BME280;10386;54.314;10.022;2023-03-04T03:53:20;101794.66;;;6.16;100.00
20455;BME280;10386;54.314;10.022;2023-03-04T03:55:47;101784.81;;;6.15;100.00
20455;BME280;10386;54.314;10.022;2023-03-04T03:58:13;101794.75;;;6.13;100.00
20455;BME280;10386;54.314;10.022;2023-03-04T04:00:40;101797.69;;;6.07;100.00
20455;BME280;10386;54.314;10.022;2023-03-04T04:03:11;101810.34;;;6.05;100.00
20455;BME280;10386;54.314;10.022;2023-03-04T04:05:40;101799.72;;;6.00;100.00
20455;BME280;10386;54.314;10.022;2023-03-04T04:08:06;101797.09;;;5.99;100.00
20455;BME280;10386;54.314;10.022;2023-03-04T04:10:33;101793.63;;;5.95;100.00
20455;BME280;10386;54.314;10.022;2023-03-04T04:13:00;101796.44;;;5.92;100.00
20455;BME280;10386;54.314;10.022;2023-03-04T04:15:26;101780.31;;;5.91;100.00
20455;BME280;10386;54.314;10.022;2023-03-04T04:17:53;101797.41;;;5.90;100.00
20455;BME280;10386;54.314;10.022;2023-03-04T04:20:20;101802.91;;;5.87;100.00
20455;BME280;10386;54.314;10.022;2023-03-04T04:22:46;101803.91;;;5.84;100.00
20455;BME280;10386;54.314;10.022;2023-03-04T04:25:13;101812.03;;;5.83;100.00
20455;BME280;10386;54.314;10.022;2023-03-04T04:27:40;101812.94;;;5.83;100.00
20455;BME280;10386;54.314;10.022;2023-03-04T04:30:07;101814.81;;;5.81;100.00
20455;BME280;10386;54.314;10.022;2023-03-04T04:32:34;101826.59;;;5.77;100.00
20455;BME280;10386;54.314;10.022;2023-03-04T04:35:00;101822.19;;;5.75;100.00
20455;BME280;10386;54.314;10.022;2023-03-04T04:37:27;101829.41;;;5.74;100.00
20455;BME280;10386;54.314;10.022;2023-03-04T04:39:54;101819.72;;;5.69;100.00
20455;BME280;10386;54.314;10.022;2023-03-04T04:42:21;101827.09;;;5.64;100.00
20455;BME280;10386;54.314;10.022;2023-03-04T04:44:48;101812.78;;;5.62;100.00
20455;BME280;10386;54.314;10.022;2023-03-04T04:47:15;101821.81;;;5.61;100.00
20455;BME280;10386;54.314;10.022;2023-03-04T04:49:41;101818.25;;;5.60;100.00
20455;BME280;10386;54.314;10.022;2023-03-04T04:52:08;101822.81;;;5.58;100.00
20455;BME280;10386;54.314;10.022;2023-03-04T04:54:35;101815.81;;;5.53;100.00
20455;BME280;10386;54.314;10.022;2023-03-04T04:57:02;101822.13;;;5.52;100.00
20455;BME280;10386;54.314;10.022;2023-03-04T04:59:31;101832.00;;;5.51;100.00
20455;BME280;10386;54.314;10.022;2023-03-04T05:01:58;101831.13;;;5.51;100.00
20455;BME280;10386;54.314;10.022;2023-03-04T05:04:25;101832.06;;;5.50;100.00
20455;BME280;10386;54.314;10.022;2023-03-04T05:06:51;101817.72;;;5.49;100.00
20455;BME280;10386;54.314;10.022;2023-03-04T05:09:18;101825.84;;;5.48;100.00
20455;BME280;10386;54.314;10.022;2023-03-04T05:11:46;101831.13;;;5.51;100.00
20455;BME280;10386;54.314;10.022;2023-03-04T05:14:13;101828.56;;;5.48;100.00
20455;BME280;10386;54.314;10.022;2023-03-04T05:16:39;101831.13;;;5.51;100.00
20455;BME280;10386;54.314;10.022;2023-03-04T05:19:06;101841.22;;;5.44;100.00
20455;BME280;10386;54.314;10.022;2023-03-04T05:21:33;101844.81;;;5.45;100.00
20455;BME280;10386;54.314;10.022;2023-03-04T05:23:59;101827.72;;;5.46;100.00
20455;BME280;10386;54.314;10.022;2023-03-04T05:26:26;101829.50;;;5.47;100.00
20455;BME280;10386;54.314;10.022;2023-03-04T05:28:53;101827.66;;;5.47;100.00
20455;BME280;10386;54.314;10.022;2023-03-04T05:31:19;101823.09;;;5.49;100.00
20455;BME280;10386;54.314;10.022;2023-03-04T05:33:46;101834.97;;;5.44;100.00
20455;BME280;10386;54.314;10.022;2023-03-04T05:36:13;101839.47;;;5.43;100.00
20455;BME280;10386;54.314;10.022;2023-03-04T05:38:40;101844.09;;;5.40;100.00
20455;BME280;10386;54.314;10.022;2023-03-04T05:41:07;101850.53;;;5.36;100.00
20455;BME280;10386;54.314;10.022;2023-03-04T05:43:34;101840.50;;;5.39;100.00
20455;BME280;10386;54.314;10.022;2023-03-04T05:46:02;101843.28;;;5.38;100.00
20455;BME280;10386;54.314;10.022;2023-03-04T05:48:29;101857.56;;;5.40;100.00
20455;BME280;10386;54.314;10.022;2023-03-04T05:50:58;101844.31;;;5.34;100.00
20455;BME280;10386;54.314;10.022;2023-03-04T05:53:26;101850.63;;;5.33;100.00
20455;BME280;10386;54.314;10.022;2023-03-04T05:55:53;101846.22;;;5.31;100.00
20455;BME280;10386;54.314;10.022;2023-03-04T05:58:20;101854.34;;;5.29;100.00
20455;BME280;10386;54.314;10.022;2023-03-04T06:00:47;101851.59;;;5.31;100.00
20455;BME280;10386;54.314;10.022;2023-03-04T06:03:18;101848.88;;;5.32;100.00
20455;BME280;10386;54.314;10.022;2023-03-04T06:05:45;101850.88;;;5.26;100.00
20455;BME280;10386;54.314;10.022;2023-03-04T06:08:13;101845.28;;;5.32;100.00
20455;BME280;10386;54.314;10.022;2023-03-04T06:10:40;101859.66;;;5.31;100.00
20455;BME280;10386;54.314;10.022;2023-03-04T06:13:07;101865.16;;;5.28;100.00
20455;BME280;10386;54.314;10.022;2023-03-04T06:15:34;101858.91;;;5.27;100.00
20455;BME280;10386;54.314;10.022;2023-03-04T06:18:01;101865.31;;;5.23;100.00
20455;BME280;10386;54.314;10.022;2023-03-04T06:20:28;101859.94;;;5.23;100.00
20455;BME280;10386;54.314;10.022;2023-03-04T06:22:54;101873.28;;;5.26;100.00
20455;BME280;10386;54.314;10.022;2023-03-04T06:25:22;101871.63;;;5.22;100.00
20455;BME280;10386;54.314;10.022;2023-03-04T06:27:49;101878.91;;;5.19;100.00
20455;BME280;10386;54.314;10.022;2023-03-04T06:30:17;101881.56;;;5.20;100.00
20455;BME280;10386;54.314;10.022;2023-03-04T06:32:44;101874.44;;;5.19;100.00
20455;BME280;10386;54.314;10.022;2023-03-04T06:35:12;101876.19;;;5.20;100.00
20455;BME280;10386;54.314;10.022;2023-03-04T06:37:39;101854.56;;;5.23;100.00
20455;BME280;10386;54.314;10.022;2023-03-04T06:40:07;101857.38;;;5.19;100.00
20455;BME280;10386;54.314;10.022;2023-03-04T06:42:34;101837.69;;;5.18;100.00
20455;BME280;10386;54.314;10.022;2023-03-04T06:45:02;101846.63;;;5.19;100.00
20455;BME280;10386;54.314;10.022;2023-03-04T06:47:29;101846.69;;;5.17;100.00
20455;BME280;10386;54.314;10.022;2023-03-04T06:49:56;101829.75;;;5.14;100.00
20455;BME280;10386;54.314;10.022;2023-03-04T06:52:23;101837.88;;;5.12;100.00
20455;BME280;10386;54.314;10.022;2023-03-04T06:54:49;101840.56;;;5.12;100.00
20455;BME280;10386;54.314;10.022;2023-03-04T06:57:16;101836.13;;;5.11;100.00
20455;BME280;10386;54.314;10.022;2023-03-04T06:59:43;101843.34;;;5.09;100.00
20455;BME280;10386;54.314;10.022;2023-03-04T07:02:11;101844.09;;;5.14;100.00
20455;BME280;10386;54.314;10.022;2023-03-04T07:04:39;101849.47;;;5.14;100.00
20455;BME280;10386;54.314;10.022;2023-03-04T07:07:06;101829.75;;;5.14;100.00
20455;BME280;10386;54.314;10.022;2023-03-04T07:09:33;101836.03;;;5.14;100.00
20455;BME280;10386;54.314;10.022;2023-03-04T07:12:00;101835.84;;;5.19;100.00
20455;BME280;10386;54.314;10.022;2023-03-04T07:14:27;101835.94;;;5.16;100.00
20455;BME280;10386;54.314;10.022;2023-03-04T07:16:54;101841.44;;;5.13;100.00
20455;BME280;10386;54.314;10.022;2023-03-04T07:19:21;101845.03;;;5.13;100.00
20455;BME280;10386;54.314;10.022;2023-03-04T07:21:48;101852.16;;;5.14;100.00
20455;BME280;10386;54.314;10.022;2023-03-04T07:24:15;101847.63;;;5.16;100.00
20455;BME280;10386;54.314;10.022;2023-03-04T07:26:42;101850.41;;;5.13;100.00
20455;BME280;10386;54.314;10.022;2023-03-04T07:29:08;101860.91;;;5.21;100.00
20455;BME280;10386;54.314;10.022;2023-03-04T07:31:35;101867.28;;;5.18;100.00
20455;BME280;10386;54.314;10.022;2023-03-04T07:34:08;101870.84;;;5.19;100.00
20455;BME280;10386;54.314;10.022;2023-03-04T07:36:35;101864.63;;;5.17;100.00
20455;BME280;10386;54.314;10.022;2023-03-04T07:39:03;101875.25;;;5.21;100.00
20455;BME280;10386;54.314;10.022;2023-03-04T07:41:31;101873.63;;;5.16;100.00
20455;BME280;10386;54.314;10.022;2023-03-04T07:44:02;101867.19;;;5.21;100.00
20455;BME280;10386;54.314;10.022;2023-03-04T07:46:29;101855.38;;;5.25;100.00
20455;BME280;10386;54.314;10.022;2023-03-04T07:48:56;101850.94;;;5.24;100.00
20455;BME280;10386;54.314;10.022;2023-03-04T07:51:25;101867.81;;;5.29;100.00
20455;BME280;10386;54.314;10.022;2023-03-04T07:53:55;101871.03;;;5.40;100.00
20455;BME280;10386;54.314;10.022;2023-03-04T07:56:24;101866.25;;;5.48;100.00
20455;BME280;10386;54.314;10.022;2023-03-04T07:58:52;101873.50;;;5.46;100.00
20455;BME280;10386;54.314;10.022;2023-03-04T08:01:25;101887.69;;;5.51;100.00
20455;BME280;10386;54.314;10.022;2023-03-04T08:03:52;101897.44;;;5.55;100.00
20455;BME280;10386;54.314;10.022;2023-03-04T08:06:20;101889.41;;;5.53;100.00
20455;BME280;10386;54.314;10.022;2023-03-04T08:08:48;101889.97;;;5.63;100.00
20455;BME280;10386;54.314;10.022;2023-03-04T08:11:19;101892.72;;;5.87;100.00
20455;BME280;10386;54.314;10.022;2023-03-04T08:13:47;101888.75;;;5.99;100.00
20455;BME280;10386;54.314;10.022;2023-03-04T08:16:16;101881.25;;;5.82;100.00
20455;BME280;10386;54.314;10.022;2023-03-04T08:18:46;101882.88;;;5.86;100.00
20455;BME280;10386;54.314;10.022;2023-03-04T08:21:15;101893.97;;;5.77;100.00
20455;BME280;10386;54.314;10.022;2023-03-04T08:23:45;101892.19;;;5.76;100.00
20455;BME280;10386;54.314;10.022;2023-03-04T08:26:29;101885.03;;;5.75;100.00
20455;BME280;10386;54.314;10.022;2023-03-04T08:28:57;101887.72;;;6.01;100.00
20455;BME280;10386;54.314;10.022;2023-03-04T08:31:23;101890.28;;;6.06;100.00
20455;BME280;10386;54.314;10.022;2023-03-04T08:33:50;101887.38;;;5.86;100.00
20455;BME280;10386;54.314;10.022;2023-03-04T08:36:18;101897.13;;;5.90;100.00
20455;BME280;10386;54.314;10.022;2023-03-04T08:38:45;101901.78;;;5.85;100.00
20455;BME280;10386;54.314;10.022;2023-03-04T08:41:12;101895.34;;;5.89;100.00
20455;BME280;10386;54.314;10.022;2023-03-04T08:43:40;101886.34;;;5.64;100.00
20455;BME280;10386;54.314;10.022;2023-03-04T08:46:07;101869.56;;;5.56;100.00
20455;BME280;10386;54.314;10.022;2023-03-04T08:48:34;101869.63;;;5.54;100.00
20455;BME280;10386;54.314;10.022;2023-03-04T08:51:01;101876.50;;;5.37;100.00
20455;BME280;10386;54.314;10.022;2023-03-04T08:53:32;101877.72;;;5.54;100.00
20455;BME280;10386;54.314;10.022;2023-03-04T08:55:58;101864.03;;;5.60;100.00
20455;BME280;10386;54.314;10.022;2023-03-04T08:58:25;101861.16;;;5.65;100.00
20455;BME280;10386;54.314;10.022;2023-03-04T09:00:52;101865.50;;;5.69;100.00
20455;BME280;10386;54.314;10.022;2023-03-04T09:03:19;101861.63;;;5.77;100.00
20455;BME280;10386;54.314;10.022;2023-03-04T09:05:47;101850.03;;;5.75;100.00
20455;BME280;10386;54.314;10.022;2023-03-04T09:08:14;101844.44;;;5.81;100.00
20455;BME280;10386;54.314;10.022;2023-03-04T09:10:42;101825.88;;;5.72;100.00
20455;BME280;10386;54.314;10.022;2023-03-04T09:13:09;101840.09;;;5.76;100.00
20455;BME280;10386;54.314;10.022;2023-03-04T09:15:37;101860.66;;;6.04;100.00
20455;BME280;10386;54.314;10.022;2023-03-04T09:18:09;101860.41;;;6.12;100.00
20455;BME280;10386;54.314;10.022;2023-03-04T09:20:35;101860.56;;;6.07;100.00
20455;BME280;10386;54.314;10.022;2023-03-04T09:23:02;101857.47;;;6.18;100.00
20455;BME280;10386;54.314;10.022;2023-03-04T09:25:29;101857.59;;;6.15;100.00
20455;BME280;10386;54.314;10.022;2023-03-04T09:27:56;101865.72;;;6.13;100.00
20455;BME280;10386;54.314;10.022;2023-03-04T09:30:23;101882.22;;;6.29;100.00
20455;BME280;10386;54.314;10.022;2023-03-04T09:32:49;101877.88;;;6.25;100.00
20455;BME280;10386;54.314;10.022;2023-03-04T09:35:16;101869.66;;;6.05;100.00
20455;BME280;10386;54.314;10.022;2023-03-04T09:37:43;101875.19;;;6.00;100.00
20455;BME280;10386;54.314;10.022;2023-03-04T09:40:17;101869.03;;;5.97;100.00
20455;BME280;10386;54.314;10.022;2023-03-04T09:42:47;101869.22;;;5.91;100.00
20455;BME280;10386;54.314;10.022;2023-03-04T09:45:18;101872.97;;;5.87;100.00
20455;BME280;10386;54.314;10.022;2023-03-04T09:47:48;101881.25;;;5.82;100.00
20455;BME280;10386;54.314;10.022;2023-03-04T09:50:17;101866.13;;;5.78;100.00
20455;BME280;10386;54.314;10.022;2023-03-04T09:55:37;101880.34;;;5.82;100.00
20455;BME280;10386;54.314;10.022;2023-03-04T09:58:29;101883.19;;;5.77;100.00
20455;BME280;10386;54.314;10.022;2023-03-04T10:01:10;101883.09;;;5.80;100.00
20455;BME280;10386;54.314;10.022;2023-03-04T10:04:01;101884.78;;;5.83;100.00
20455;BME280;10386;54.314;10.022;2023-03-04T10:06:30;101896.06;;;5.94;100.00
20455;BME280;10386;54.314;10.022;2023-03-04T10:09:01;101899.78;;;5.91;100.00
20455;BME280;10386;54.314;10.022;2023-03-04T10:11:57;101884.75;;;5.84;100.00
20455;BME280;10386;54.314;10.022;2023-03-04T10:19:37;101872.56;;;5.99;100.00
20455;BME280;10386;54.314;10.022;2023-03-04T10:22:23;101867.25;;;6.20;100.00
20455;BME280;10386;54.314;10.022;2023-03-04T10:24:56;101852.94;;;6.18;100.00
20455;BME280;10386;54.314;10.022;2023-03-04T10:27:24;101853.50;;;6.03;100.00
20455;BME280;10386;54.314;10.022;2023-03-04T10:29:51;101871.06;;;6.15;100.00
20455;BME280;10386;54.314;10.022;2023-03-04T10:32:19;101867.06;;;6.02;100.00
20455;BME280;10386;54.314;10.022;2023-03-04T10:34:46;101873.16;;;6.07;100.00
20455;BME280;10386;54.314;10.022;2023-03-04T10:37:13;101883.66;;;6.14;100.00
20455;BME280;10386;54.314;10.022;2023-03-04T10:39:43;101871.94;;;6.15;100.00
20455;BME280;10386;54.314;10.022;2023-03-04T10:44:57;101863.50;;;6.24;100.00
20455;BME280;10386;54.314;10.022;2023-03-04T10:47:27;101864.50;;;6.22;100.00
20455;BME280;10386;54.314;10.022;2023-03-04T10:49:56;101883.75;;;6.36;100.00
20455;BME280;10386;54.314;10.022;2023-03-04T10:52:34;101878.13;;;6.42;100.00
20455;BME280;10386;54.314;10.022;2023-03-04T10:55:04;101875.66;;;6.36;100.00
20455;BME280;10386;54.314;10.022;2023-03-04T10:57:37;101870.13;;;6.16;100.00
20455;BME280;10386;54.314;10.022;2023-03-04T11:00:28;101886.53;;;6.10;100.00
20455;BME280;10386;54.314;10.022;2023-03-04T11:05:43;101890.66;;;6.20;100.00
20455;BME280;10386;54.314;10.022;2023-03-04T11:08:22;101908.28;;;6.28;100.00
20455;BME280;10386;54.314;10.022;2023-03-04T11:10:49;101911.91;;;6.27;100.00
20455;BME280;10386;54.314;10.022;2023-03-04T11:13:24;101909.41;;;6.23;100.00
20455;BME280;10386;54.314;10.022;2023-03-04T11:18:22;101931.59;;;6.54;100.00
20455;BME280;10386;54.314;10.022;2023-03-04T11:20:53;101930.25;;;6.42;100.00
20455;BME280;10386;54.314;10.022;2023-03-04T11:26:16;101906.28;;;6.58;100.00
20455;BME280;10386;54.314;10.022;2023-03-04T11:28:52;101904.75;;;6.51;100.00
20455;BME280;10386;54.314;10.022;2023-03-04T11:31:32;101893.69;;;6.58;100.00
20455;BME280;10386;54.314;10.022;2023-03-04T11:34:52;101896.72;;;6.49;100.00
20455;BME280;10386;54.314;10.022;2023-03-04T11:37:45;101894.19;;;6.45;100.00
20455;BME280;10386;54.314;10.022;2023-03-04T11:39:47;101904.09;;;6.90;100.00
20455;BME280;10386;54.314;10.022;2023-03-04T11:44:46;101886.66;;;6.54;100.00
20455;BME280;10386;54.314;10.022;2023-03-04T11:50:12;101887.28;;;6.61;100.00
20455;BME280;10386;54.314;10.022;2023-03-04T11:55:49;101887.31;;;6.82;100.00
20455;BME280;10386;54.314;10.022;2023-03-04T11:58:40;101913.66;;;6.98;100.00
20455;BME280;10386;54.314;10.022;2023-03-04T12:22:56;101858.13;;;7.14;100.00
20455;BME280;10386;54.314;10.022;2023-03-04T12:25:31;101843.16;;;7.06;100.00
20455;BME280;10386;54.314;10.022;2023-03-04T12:31:49;101844.66;;;7.13;100.00
20455;BME280;10386;54.314;10.022;2023-03-04T12:37:26;101833.88;;;7.54;100.00
20455;BME280;10386;54.314;10.022;2023-03-04T12:40:42;101815.94;;;7.93;100.00
20455;BME280;10386;54.314;10.022;2023-03-04T12:43:41;101792.84;;;8.05;100.00
20455;BME280;10386;54.314;10.022;2023-03-04T12:54:44;101772.53;;;7.96;100.00
20455;BME280;10386;54.314;10.022;2023-03-04T12:57:17;101775.25;;;7.15;100.00
20455;BME280;10386;54.314;10.022;2023-03-04T13:03:36;101806.03;;;7.11;100.00
20455;BME280;10386;54.314;10.022;2023-03-04T13:05:48;101825.38;;;6.79;100.00
20455;BME280;10386;54.314;10.022;2023-03-04T13:10:52;101827.78;;;6.86;100.00
20455;BME280;10386;54.314;10.022;2023-03-04T13:14:21;101828.88;;;7.45;100.00
20455;BME280;10386;54.314;10.022;2023-03-04T13:16:57;101811.66;;;7.68;100.00
20455;BME280;10386;54.314;10.022;2023-03-04T13:43:51;101804.50;;;7.67;100.00
20455;BME280;10386;54.314;10.022;2023-03-04T13:51:26;101809.41;;;7.37;100.00
20455;BME280;10386;54.314;10.022;2023-03-04T13:59:55;101815.31;;;7.47;100.00
20455;BME280;10386;54.314;10.022;2023-03-04T14:01:59;101814.81;;;7.37;100.00
20455;BME280;10386;54.314;10.022;2023-03-04T14:04:50;101811.03;;;7.41;100.00
20455;BME280;10386;54.314;10.022;2023-03-04T14:10:01;101842.16;;;7.91;100.00
20455;BME280;10386;54.314;10.022;2023-03-04T14:12:33;101825.84;;;7.53;100.00
20455;BME280;10386;54.314;10.022;2023-03-04T14:15:22;101825.06;;;7.71;100.00
20455;BME280;10386;54.314;10.022;2023-03-04T14:17:53;101800.94;;;7.86;100.00
20455;BME280;10386;54.314;10.022;2023-03-04T14:20:27;101815.41;;;7.65;100.00
20455;BME280;10386;54.314;10.022;2023-03-04T14:22:59;101799.44;;;7.59;100.00
20455;BME280;10386;54.314;10.022;2023-03-04T14:25:29;101786.19;;;7.53;100.00
20455;BME280;10386;54.314;10.022;2023-03-04T14:28:11;101794.59;;;7.87;100.00
20455;BME280;10386;54.314;10.022;2023-03-04T14:30:40;101794.50;;;7.49;100.00
20455;BME280;10386;54.314;10.022;2023-03-04T14:33:29;101798.88;;;7.51;100.00
20455;BME280;10386;54.314;10.022;2023-03-04T14:35:59;101807.03;;;7.71;100.00
20455;BME280;10386;54.314;10.022;2023-03-04T14:38:29;101795.78;;;7.60;100.00
20455;BME280;10386;54.314;10.022;2023-03-04T14:41:07;101804.38;;;7.90;100.00
20455;BME280;10386;54.314;10.022;2023-03-04T14:43:50;101783.50;;;7.93;100.00